sensor_id;sensor_type;location;lat;lon;timestamp;P1;durP1;ratioP1;P2;durP2;ratioP2
31390;SDS011;18022;45.492;11.548;2024-02-26T00:01:36;14.63;;;10.50;;
31390;SDS011;18022;45.492;11.548;2024-02-26T00:04:02;14.48;;;10.93;;
31390;SDS011;18022;45.492;11.548;2024-02-26T00:06:28;17.05;;;10.75;;
31390;SDS011;18022;45.492;11.548;2024-02-26T00:08:57;16.73;;;11.95;;
31390;SDS011;18022;45.492;11.548;2024-02-26T00:11:23;16.27;;;11.43;;
31390;SDS011;18022;45.492;11.548;2024-02-26T00:13:48;17.33;;;12.18;;
31390;SDS011;18022;45.492;11.548;2024-02-26T00:16:14;17.90;;;11.55;;
31390;SDS011;18022;45.492;11.548;2024-02-26T00:18:40;15.02;;;11.38;;
31390;SDS011;18022;45.492;11.548;2024-02-26T00:21:05;16.67;;;11.93;;
31390;SDS011;18022;45.492;11.548;2024-02-26T00:23:31;13.52;;;11.30;;
31390;SDS011;18022;45.492;11.548;2024-02-26T00:25:57;13.82;;;10.63;;
31390;SDS011;18022;45.492;11.548;2024-02-26T00:28:23;16.05;;;10.73;;
31390;SDS011;18022;45.492;11.548;2024-02-26T00:30:50;14.13;;;10.90;;
31390;SDS011;18022;45.492;11.548;2024-02-26T00:33:20;15.32;;;10.90;;
31390;SDS011;18022;45.492;11.548;2024-02-26T00:35:46;15.23;;;10.68;;
31390;SDS011;18022;45.492;11.548;2024-02-26T00:38:12;14.32;;;10.02;;
31390;SDS011;18022;45.492;11.548;2024-02-26T00:40:38;15.80;;;10.63;;
31390;SDS011;18022;45.492;11.548;2024-02-26T00:43:05;13.38;;;10.18;;
31390;SDS011;18022;45.492;11.548;2024-02-26T00:45:31;13.73;;;9.68;;
31390;SDS011;18022;45.492;11.548;2024-02-26T00:47:57;16.52;;;10.52;;
31390;SDS011;18022;45.492;11.548;2024-02-26T00:50:23;15.02;;;10.48;;
31390;SDS011;18022;45.492;11.548;2024-02-26T00:52:49;12.63;;;9.73;;
31390;SDS011;18022;45.492;11.548;2024-02-26T00:55:14;13.40;;;9.98;;
31390;SDS011;18022;45.492;11.548;2024-02-26T00:57:41;11.77;;;9.90;;
31390;SDS011;18022;45.492;11.548;2024-02-26T01:00:07;12.93;;;9.75;;
31390;SDS011;18022;45.492;11.548;2024-02-26T01:02:36;11.75;;;9.85;;
31390;SDS011;18022;45.492;11.548;2024-02-26T01:05:03;12.63;;;10.13;;
31390;SDS011;18022;45.492;11.548;2024-02-26T01:10:01;13.48;;;10.93;;
31390;SDS011;18022;45.492;11.548;2024-02-26T01:12:27;13.60;;;9.85;;
31390;SDS011;18022;45.492;11.548;2024-02-26T01:14:53;14.70;;;10.05;;
31390;SDS011;18022;45.492;11.548;2024-02-26T01:17:18;15.95;;;9.98;;
31390;SDS011;18022;45.492;11.548;2024-02-26T01:19:44;14.32;;;10.10;;
31390;SDS011;18022;45.492;11.548;2024-02-26T01:22:10;14.98;;;11.27;;
31390;SDS011;18022;45.492;11.548;2024-02-26T01:24:35;14.95;;;10.73;;
31390;SDS011;18022;45.492;11.548;2024-02-26T01:27:01;14.32;;;10.45;;
31390;SDS011;18022;45.492;11.548;2024-02-26T01:29:27;15.60;;;10.77;;
31390;SDS011;18022;45.492;11.548;2024-02-26T01:31:52;16.10;;;11.93;;
31390;SDS011;18022;45.492;11.548;2024-02-26T01:34:18;16.95;;;11.52;;
31390;SDS011;18022;45.492;11.548;2024-02-26T01:36:44;16.33;;;11.25;;
31390;SDS011;18022;45.492;11.548;2024-02-26T01:39:09;14.32;;;10.77;;
31390;SDS011;18022;45.492;11.548;2024-02-26T01:44:03;14.57;;;10.73;;
31390;SDS011;18022;45.492;11.548;2024-02-26T01:46:29;14.82;;;11.57;;
31390;SDS011;18022;45.492;11.548;2024-02-26T01:48:56;14.13;;;11.60;;
31390;SDS011;18022;45.492;11.548;2024-02-26T01:51:22;14.32;;;10.63;;
31390;SDS011;18022;45.492;11.548;2024-02-26T01:53:48;14.02;;;10.50;;
31390;SDS011;18022;45.492;11.548;2024-02-26T01:56:14;13.50;;;11.32;;
31390;SDS011;18022;45.492;11.548;2024-02-26T01:58:41;13.52;;;11.27;;
31390;SDS011;18022;45.492;11.548;2024-02-26T02:01:08;14.25;;;11.35;;
31390;SDS011;18022;45.492;11.548;2024-02-26T02:03:34;14.77;;;11.13;;
31390;SDS011;18022;45.492;11.548;2024-02-26T02:06:01;13.02;;;11.20;;
31390;SDS011;18022;45.492;11.548;2024-02-26T02:08:28;10.63;;;8.75;;
31390;SDS011;18022;45.492;11.548;2024-02-26T02:10:54;13.20;;;11.18;;
31390;SDS011;18022;45.492;11.548;2024-02-26T02:13:20;15.88;;;11.27;;
31390;SDS011;18022;45.492;11.548;2024-02-26T02:15:46;14.55;;;11.27;;
31390;SDS011;18022;45.492;11.548;2024-02-26T02:18:11;15.65;;;11.55;;
31390;SDS011;18022;45.492;11.548;2024-02-26T02:20:37;14.13;;;11.35;;
31390;SDS011;18022;45.492;11.548;2024-02-26T02:23:03;14.93;;;11.80;;
31390;SDS011;18022;45.492;11.548;2024-02-26T02:25:29;13.77;;;11.02;;
31390;SDS011;18022;45.492;11.548;2024-02-26T02:27:55;14.27;;;10.90;;
31390;SDS011;18022;45.492;11.548;2024-02-26T02:30:23;13.55;;;11.23;;
31390;SDS011;18022;45.492;11.548;2024-02-26T02:32:51;11.77;;;10.18;;
31390;SDS011;18022;45.492;11.548;2024-02-26T02:35:18;10.50;;;8.98;;
31390;SDS011;18022;45.492;11.548;2024-02-26T02:37:44;15.13;;;9.93;;
31390;SDS011;18022;45.492;11.548;2024-02-26T02:40:09;12.43;;;10.02;;
31390;SDS011;18022;45.492;11.548;2024-02-26T02:42:35;13.38;;;10.27;;
31390;SDS011;18022;45.492;11.548;2024-02-26T02:45:01;12.55;;;9.95;;
31390;SDS011;18022;45.492;11.548;2024-02-26T02:47:26;11.95;;;10.43;;
31390;SDS011;18022;45.492;11.548;2024-02-26T02:49:52;12.45;;;9.88;;
31390;SDS011;18022;45.492;11.548;2024-02-26T02:52:18;11.40;;;10.20;;
31390;SDS011;18022;45.492;11.548;2024-02-26T02:54:44;10.52;;;9.50;;
31390;SDS011;18022;45.492;11.548;2024-02-26T02:57:09;11.18;;;9.98;;
31390;SDS011;18022;45.492;11.548;2024-02-26T02:59:36;10.68;;;9.57;;
31390;SDS011;18022;45.492;11.548;2024-02-26T03:02:02;10.25;;;9.15;;
31390;SDS011;18022;45.492;11.548;2024-02-26T03:04:28;10.77;;;9.68;;
31390;SDS011;18022;45.492;11.548;2024-02-26T03:06:54;13.35;;;9.88;;
31390;SDS011;18022;45.492;11.548;2024-02-26T03:09:20;13.88;;;10.05;;
31390;SDS011;18022;45.492;11.548;2024-02-26T03:11:46;12.00;;;10.30;;
31390;SDS011;18022;45.492;11.548;2024-02-26T03:14:11;11.95;;;10.45;;
31390;SDS011;18022;45.492;11.548;2024-02-26T03:16:37;12.98;;;10.68;;
31390;SDS011;18022;45.492;11.548;2024-02-26T03:19:03;15.68;;;11.38;;
31390;SDS011;18022;45.492;11.548;2024-02-26T03:21:29;12.95;;;9.65;;
31390;SDS011;18022;45.492;11.548;2024-02-26T03:23:54;13.02;;;9.98;;
31390;SDS011;18022;45.492;11.548;2024-02-26T03:26:20;9.43;;;8.52;;
31390;SDS011;18022;45.492;11.548;2024-02-26T03:28:46;9.23;;;8.23;;
31390;SDS011;18022;45.492;11.548;2024-02-26T03:31:12;11.48;;;8.85;;
31390;SDS011;18022;45.492;11.548;2024-02-26T03:33:38;9.30;;;8.40;;
31390;SDS011;18022;45.492;11.548;2024-02-26T03:36:04;9.40;;;8.50;;
31390;SDS011;18022;45.492;11.548;2024-02-26T03:38:32;10.35;;;9.35;;
31390;SDS011;18022;45.492;11.548;2024-02-26T03:40:58;10.52;;;9.30;;
31390;SDS011;18022;45.492;11.548;2024-02-26T03:43:24;9.70;;;8.80;;
31390;SDS011;18022;45.492;11.548;2024-02-26T03:45:50;10.35;;;9.23;;
31390;SDS011;18022;45.492;11.548;2024-02-26T03:48:15;12.10;;;10.02;;
31390;SDS011;18022;45.492;11.548;2024-02-26T03:50:41;10.82;;;9.73;;
31390;SDS011;18022;45.492;11.548;2024-02-26T03:53:07;13.18;;;10.00;;
31390;SDS011;18022;45.492;11.548;2024-02-26T03:55:34;9.60;;;8.70;;
31390;SDS011;18022;45.492;11.548;2024-02-26T03:58:00;9.10;;;8.20;;
31390;SDS011;18022;45.492;11.548;2024-02-26T04:00:25;8.98;;;8.07;;
31390;SDS011;18022;45.492;11.548;2024-02-26T04:02:53;9.73;;;8.68;;
31390;SDS011;18022;45.492;11.548;2024-02-26T04:05:19;10.27;;;9.20;;
31390;SDS011;18022;45.492;11.548;2024-02-26T04:07:45;10.30;;;9.18;;
31390;SDS011;18022;45.492;11.548;2024-02-26T04:10:11;10.43;;;8.93;;
31390;SDS011;18022;45.492;11.548;2024-02-26T04:12:40;11.57;;;9.48;;
31390;SDS011;18022;45.492;11.548;2024-02-26T04:15:07;15.52;;;11.05;;
31390;SDS011;18022;45.492;11.548;2024-02-26T04:17:34;12.98;;;9.57;;
31390;SDS011;18022;45.492;11.548;2024-02-26T04:20:00;9.50;;;8.50;;
31390;SDS011;18022;45.492;11.548;2024-02-26T04:22:25;8.05;;;7.25;;
31390;SDS011;18022;45.492;11.548;2024-02-26T04:24:51;8.45;;;7.60;;
31390;SDS011;18022;45.492;11.548;2024-02-26T04:27:17;7.72;;;7.05;;
31390;SDS011;18022;45.492;11.548;2024-02-26T04:29:42;9.15;;;7.78;;
31390;SDS011;18022;45.492;11.548;2024-02-26T04:32:08;8.52;;;7.63;;
31390;SDS011;18022;45.492;11.548;2024-02-26T04:34:34;10.23;;;9.23;;
31390;SDS011;18022;45.492;11.548;2024-02-26T04:37:00;9.88;;;8.57;;
31390;SDS011;18022;45.492;11.548;2024-02-26T04:39:25;8.43;;;7.63;;
31390;SDS011;18022;45.492;11.548;2024-02-26T04:41:51;10.15;;;8.35;;
31390;SDS011;18022;45.492;11.548;2024-02-26T04:44:17;7.63;;;6.93;;
31390;SDS011;18022;45.492;11.548;2024-02-26T04:46:42;8.10;;;7.40;;
31390;SDS011;18022;45.492;11.548;2024-02-26T04:49:08;9.07;;;8.18;;
31390;SDS011;18022;45.492;11.548;2024-02-26T04:51:34;9.55;;;8.55;;
31390;SDS011;18022;45.492;11.548;2024-02-26T04:54:00;9.48;;;8.35;;
31390;SDS011;18022;45.492;11.548;2024-02-26T04:56:25;9.35;;;8.32;;
31390;SDS011;18022;45.492;11.548;2024-02-26T04:58:51;10.43;;;8.38;;
31390;SDS011;18022;45.492;11.548;2024-02-26T05:01:17;9.15;;;8.13;;
31390;SDS011;18022;45.492;11.548;2024-02-26T05:03:43;9.20;;;8.27;;
31390;SDS011;18022;45.492;11.548;2024-02-26T05:06:09;7.97;;;6.90;;
31390;SDS011;18022;45.492;11.548;2024-02-26T05:08:35;8.48;;;7.68;;
31390;SDS011;18022;45.492;11.548;2024-02-26T05:11:01;8.38;;;7.57;;
31390;SDS011;18022;45.492;11.548;2024-02-26T05:13:28;8.73;;;7.93;;
31390;SDS011;18022;45.492;11.548;2024-02-26T05:15:54;8.45;;;7.65;;
31390;SDS011;18022;45.492;11.548;2024-02-26T05:18:20;8.60;;;7.80;;
31390;SDS011;18022;45.492;11.548;2024-02-26T05:20:47;7.50;;;6.90;;
31390;SDS011;18022;45.492;11.548;2024-02-26T05:23:12;7.50;;;6.80;;
31390;SDS011;18022;45.492;11.548;2024-02-26T05:25:38;7.82;;;6.93;;
31390;SDS011;18022;45.492;11.548;2024-02-26T05:28:04;7.95;;;7.10;;
31390;SDS011;18022;45.492;11.548;2024-02-26T05:30:30;8.45;;;7.75;;
31390;SDS011;18022;45.492;11.548;2024-02-26T05:32:55;7.28;;;6.63;;
31390;SDS011;18022;45.492;11.548;2024-02-26T05:35:21;6.95;;;6.32;;
31390;SDS011;18022;45.492;11.548;2024-02-26T05:37:47;8.20;;;7.35;;
31390;SDS011;18022;45.492;11.548;2024-02-26T05:40:13;8.05;;;7.35;;
31390;SDS011;18022;45.492;11.548;2024-02-26T05:42:39;8.77;;;7.75;;
31390;SDS011;18022;45.492;11.548;2024-02-26T05:45:05;8.88;;;8.05;;
31390;SDS011;18022;45.492;11.548;2024-02-26T05:47:34;9.02;;;8.23;;
31390;SDS011;18022;45.492;11.548;2024-02-26T05:50:01;8.00;;;7.30;;
31390;SDS011;18022;45.492;11.548;2024-02-26T05:52:27;9.10;;;7.72;;
31390;SDS011;18022;45.492;11.548;2024-02-26T05:54:56;8.32;;;7.63;;
31390;SDS011;18022;45.492;11.548;2024-02-26T05:57:22;8.65;;;7.85;;
31390;SDS011;18022;45.492;11.548;2024-02-26T05:59:48;8.15;;;7.45;;
31390;SDS011;18022;45.492;11.548;2024-02-26T06:02:13;12.15;;;10.00;;
31390;SDS011;18022;45.492;11.548;2024-02-26T06:04:39;8.98;;;8.00;;
31390;SDS011;18022;45.492;11.548;2024-02-26T06:07:05;10.15;;;8.45;;
31390;SDS011;18022;45.492;11.548;2024-02-26T06:09:31;11.45;;;9.68;;
31390;SDS011;18022;45.492;11.548;2024-02-26T06:11:57;9.48;;;8.45;;
31390;SDS011;18022;45.492;11.548;2024-02-26T06:14:23;10.40;;;9.35;;
31390;SDS011;18022;45.492;11.548;2024-02-26T06:16:48;9.07;;;8.18;;
31390;SDS011;18022;45.492;11.548;2024-02-26T06:19:14;8.35;;;7.53;;
31390;SDS011;18022;45.492;11.548;2024-02-26T06:21:40;8.88;;;8.05;;
31390;SDS011;18022;45.492;11.548;2024-02-26T06:24:06;8.95;;;8.15;;
31390;SDS011;18022;45.492;11.548;2024-02-26T06:26:31;8.98;;;8.15;;
31390;SDS011;18022;45.492;11.548;2024-02-26T06:28:58;9.05;;;8.07;;
31390;SDS011;18022;45.492;11.548;2024-02-26T06:31:24;8.77;;;7.97;;
31390;SDS011;18022;45.492;11.548;2024-02-26T06:33:52;9.40;;;8.50;;
31390;SDS011;18022;45.492;11.548;2024-02-26T06:36:19;9.73;;;8.73;;
31390;SDS011;18022;45.492;11.548;2024-02-26T06:38:44;9.90;;;8.65;;
31390;SDS011;18022;45.492;11.548;2024-02-26T06:41:10;9.20;;;8.30;;
31390;SDS011;18022;45.492;11.548;2024-02-26T06:43:36;9.50;;;8.60;;
31390;SDS011;18022;45.492;11.548;2024-02-26T06:46:02;10.02;;;8.90;;
31390;SDS011;18022;45.492;11.548;2024-02-26T06:48:28;11.52;;;8.15;;
31390;SDS011;18022;45.492;11.548;2024-02-26T06:50:53;9.82;;;8.82;;
31390;SDS011;18022;45.492;11.548;2024-02-26T06:53:19;9.88;;;8.88;;
31390;SDS011;18022;45.492;11.548;2024-02-26T06:55:45;9.23;;;8.38;;
31390;SDS011;18022;45.492;11.548;2024-02-26T06:58:11;10.35;;;8.35;;
31390;SDS011;18022;45.492;11.548;2024-02-26T07:00:36;9.43;;;8.52;;
31390;SDS011;18022;45.492;11.548;2024-02-26T07:03:02;9.95;;;8.88;;
31390;SDS011;18022;45.492;11.548;2024-02-26T07:05:28;10.30;;;8.52;;
31390;SDS011;18022;45.492;11.548;2024-02-26T07:07:54;9.68;;;8.55;;
31390;SDS011;18022;45.492;11.548;2024-02-26T07:10:20;8.88;;;7.97;;
31390;SDS011;18022;45.492;11.548;2024-02-26T07:12:46;14.40;;;10.60;;
31390;SDS011;18022;45.492;11.548;2024-02-26T07:15:12;13.77;;;9.98;;
31390;SDS011;18022;45.492;11.548;2024-02-26T07:17:37;16.23;;;10.98;;
31390;SDS011;18022;45.492;11.548;2024-02-26T07:20:06;18.40;;;11.05;;
31390;SDS011;18022;45.492;11.548;2024-02-26T07:22:33;9.85;;;4.82;;
31390;SDS011;18022;45.492;11.548;2024-02-26T07:24:59;12.50;;;9.13;;
31390;SDS011;18022;45.492;11.548;2024-02-26T07:27:24;9.13;;;8.18;;
31390;SDS011;18022;45.492;11.548;2024-02-26T07:29:50;9.57;;;8.07;;
31390;SDS011;18022;45.492;11.548;2024-02-26T07:32:16;8.98;;;8.07;;
31390;SDS011;18022;45.492;11.548;2024-02-26T07:34:42;9.55;;;8.20;;
31390;SDS011;18022;45.492;11.548;2024-02-26T07:37:09;9.10;;;8.10;;
31390;SDS011;18022;45.492;11.548;2024-02-26T07:39:36;11.77;;;8.75;;
31390;SDS011;18022;45.492;11.548;2024-02-26T07:42:02;8.63;;;7.75;;
31390;SDS011;18022;45.492;11.548;2024-02-26T07:44:28;8.48;;;7.68;;
31390;SDS011;18022;45.492;11.548;2024-02-26T07:46:54;8.10;;;7.38;;
31390;SDS011;18022;45.492;11.548;2024-02-26T07:49:19;9.45;;;7.85;;
31390;SDS011;18022;45.492;11.548;2024-02-26T07:51:45;8.85;;;7.78;;
31390;SDS011;18022;45.492;11.548;2024-02-26T07:54:11;8.70;;;7.68;;
31390;SDS011;18022;45.492;11.548;2024-02-26T07:56:37;9.57;;;7.18;;
31390;SDS011;18022;45.492;11.548;2024-02-26T07:59:03;9.40;;;7.85;;
31390;SDS011;18022;45.492;11.548;2024-02-26T08:01:29;10.77;;;7.95;;
31390;SDS011;18022;45.492;11.548;2024-02-26T08:03:54;10.93;;;8.35;;
31390;SDS011;18022;45.492;11.548;2024-02-26T08:06:20;10.45;;;8.13;;
31390;SDS011;18022;45.492;11.548;2024-02-26T08:08:46;9.98;;;8.20;;
31390;SDS011;18022;45.492;11.548;2024-02-26T08:11:14;10.02;;;9.02;;
31390;SDS011;18022;45.492;11.548;2024-02-26T08:13:40;11.40;;;9.15;;
31390;SDS011;18022;45.492;11.548;2024-02-26T08:16:06;13.35;;;8.80;;
31390;SDS011;18022;45.492;11.548;2024-02-26T08:18:32;12.77;;;8.73;;
31390;SDS011;18022;45.492;11.548;2024-02-26T08:20:58;12.95;;;8.55;;
31390;SDS011;18022;45.492;11.548;2024-02-26T08:23:23;10.60;;;8.82;;
31390;SDS011;18022;45.492;11.548;2024-02-26T08:25:50;10.65;;;9.55;;
31390;SDS011;18022;45.492;11.548;2024-02-26T08:28:16;10.85;;;9.20;;
31390;SDS011;18022;45.492;11.548;2024-02-26T08:30:43;10.67;;;9.13;;
31390;SDS011;18022;45.492;11.548;2024-02-26T08:33:09;11.02;;;8.80;;
31390;SDS011;18022;45.492;11.548;2024-02-26T08:35:35;11.15;;;10.05;;
31390;SDS011;18022;45.492;11.548;2024-02-26T08:38:01;14.35;;;10.40;;
31390;SDS011;18022;45.492;11.548;2024-02-26T08:40:27;16.58;;;11.25;;
31390;SDS011;18022;45.492;11.548;2024-02-26T08:42:54;12.57;;;11.18;;
31390;SDS011;18022;45.492;11.548;2024-02-26T08:45:20;18.45;;;10.38;;
31390;SDS011;18022;45.492;11.548;2024-02-26T08:47:46;12.93;;;11.30;;
31390;SDS011;18022;45.492;11.548;2024-02-26T08:50:14;19.40;;;14.38;;
31390;SDS011;18022;45.492;11.548;2024-02-26T08:52:39;22.27;;;18.40;;
31390;SDS011;18022;45.492;11.548;2024-02-26T08:55:05;15.65;;;10.25;;
31390;SDS011;18022;45.492;11.548;2024-02-26T08:57:33;16.98;;;9.45;;
31390;SDS011;18022;45.492;11.548;2024-02-26T09:00:00;13.13;;;11.15;;
31390;SDS011;18022;45.492;11.548;2024-02-26T09:02:26;13.93;;;10.20;;
31390;SDS011;18022;45.492;11.548;2024-02-26T09:04:52;15.15;;;12.23;;
31390;SDS011;18022;45.492;11.548;2024-02-26T09:09:46;21.98;;;16.02;;
31390;SDS011;18022;45.492;11.548;2024-02-26T09:12:12;22.50;;;16.85;;
31390;SDS011;18022;45.492;11.548;2024-02-26T09:14:37;26.13;;;17.20;;
31390;SDS011;18022;45.492;11.548;2024-02-26T09:17:03;29.90;;;20.42;;
31390;SDS011;18022;45.492;11.548;2024-02-26T09:19:29;12.80;;;9.75;;
31390;SDS011;18022;45.492;11.548;2024-02-26T09:21:54;11.02;;;8.68;;
31390;SDS011;18022;45.492;11.548;2024-02-26T09:24:22;14.30;;;10.07;;
31390;SDS011;18022;45.492;11.548;2024-02-26T09:26:49;13.93;;;10.45;;
31390;SDS011;18022;45.492;11.548;2024-02-26T09:29:15;17.88;;;10.07;;
31390;SDS011;18022;45.492;11.548;2024-02-26T09:31:41;14.63;;;8.38;;
31390;SDS011;18022;45.492;11.548;2024-02-26T09:34:07;12.48;;;8.07;;
31390;SDS011;18022;45.492;11.548;2024-02-26T09:36:35;11.50;;;8.15;;
31390;SDS011;18022;45.492;11.548;2024-02-26T09:39:01;15.63;;;11.63;;
31390;SDS011;18022;45.492;11.548;2024-02-26T09:41:28;11.23;;;9.02;;
31390;SDS011;18022;45.492;11.548;2024-02-26T09:43:55;15.20;;;12.23;;
31390;SDS011;18022;45.492;11.548;2024-02-26T09:48:49;13.48;;;10.25;;
31390;SDS011;18022;45.492;11.548;2024-02-26T09:51:15;10.75;;;8.48;;
31390;SDS011;18022;45.492;11.548;2024-02-26T09:56:11;18.80;;;13.52;;
31390;SDS011;18022;45.492;11.548;2024-02-26T09:58:37;14.13;;;11.95;;
31390;SDS011;18022;45.492;11.548;2024-02-26T10:01:04;10.20;;;8.75;;
31390;SDS011;18022;45.492;11.548;2024-02-26T10:03:39;12.80;;;9.25;;
31390;SDS011;18022;45.492;11.548;2024-02-26T10:06:07;11.93;;;8.20;;
31390;SDS011;18022;45.492;11.548;2024-02-26T10:08:34;11.77;;;6.05;;
31390;SDS011;18022;45.492;11.548;2024-02-26T10:11:02;14.13;;;9.32;;
31390;SDS011;18022;45.492;11.548;2024-02-26T10:15:55;12.73;;;8.15;;
31390;SDS011;18022;45.492;11.548;2024-02-26T10:18:22;16.55;;;8.85;;
31390;SDS011;18022;45.492;11.548;2024-02-26T10:20:59;15.50;;;13.05;;
31390;SDS011;18022;45.492;11.548;2024-02-26T10:23:28;18.27;;;11.43;;
31390;SDS011;18022;45.492;11.548;2024-02-26T10:25:54;9.85;;;8.85;;
31390;SDS011;18022;45.492;11.548;2024-02-26T10:28:20;12.55;;;9.80;;
31390;SDS011;18022;45.492;11.548;2024-02-26T10:30:46;13.20;;;10.27;;
31390;SDS011;18022;45.492;11.548;2024-02-26T10:33:12;12.70;;;9.13;;
31390;SDS011;18022;45.492;11.548;2024-02-26T10:35:49;10.80;;;7.88;;
31390;SDS011;18022;45.492;11.548;2024-02-26T10:38:15;10.45;;;7.72;;
31390;SDS011;18022;45.492;11.548;2024-02-26T10:40:45;18.27;;;10.52;;
31390;SDS011;18022;45.492;11.548;2024-02-26T10:43:11;9.85;;;6.53;;
31390;SDS011;18022;45.492;11.548;2024-02-26T10:45:39;9.75;;;6.90;;
31390;SDS011;18022;45.492;11.548;2024-02-26T10:50:35;8.90;;;7.57;;
31390;SDS011;18022;45.492;11.548;2024-02-26T10:53:00;16.42;;;7.55;;
31390;SDS011;18022;45.492;11.548;2024-02-26T10:55:27;9.20;;;6.65;;
31390;SDS011;18022;45.492;11.548;2024-02-26T10:57:53;9.10;;;5.28;;
31390;SDS011;18022;45.492;11.548;2024-02-26T11:00:20;10.93;;;7.50;;
31390;SDS011;18022;45.492;11.548;2024-02-26T11:02:45;8.50;;;5.95;;
31390;SDS011;18022;45.492;11.548;2024-02-26T11:05:12;7.25;;;5.90;;
31390;SDS011;18022;45.492;11.548;2024-02-26T11:07:39;10.37;;;7.60;;
31390;SDS011;18022;45.492;11.548;2024-02-26T11:10:07;11.30;;;8.00;;
31390;SDS011;18022;45.492;11.548;2024-02-26T11:12:34;8.57;;;6.93;;
31390;SDS011;18022;45.492;11.548;2024-02-26T11:15:02;7.50;;;6.70;;
31390;SDS011;18022;45.492;11.548;2024-02-26T11:17:29;11.10;;;7.15;;
31390;SDS011;18022;45.492;11.548;2024-02-26T11:19:59;10.43;;;6.18;;
31390;SDS011;18022;45.492;11.548;2024-02-26T11:22:28;13.23;;;6.13;;
31390;SDS011;18022;45.492;11.548;2024-02-26T11:24:54;6.18;;;4.95;;
31390;SDS011;18022;45.492;11.548;2024-02-26T11:27:26;11.23;;;5.60;;
31390;SDS011;18022;45.492;11.548;2024-02-26T11:29:55;10.73;;;7.20;;
31390;SDS011;18022;45.492;11.548;2024-02-26T11:32:25;16.80;;;11.48;;
31390;SDS011;18022;45.492;11.548;2024-02-26T11:34:53;12.05;;;7.78;;
31390;SDS011;18022;45.492;11.548;2024-02-26T11:37:19;9.32;;;5.70;;
31390;SDS011;18022;45.492;11.548;2024-02-26T11:39:45;8.13;;;5.75;;
31390;SDS011;18022;45.492;11.548;2024-02-26T11:42:14;10.50;;;5.10;;
31390;SDS011;18022;45.492;11.548;2024-02-26T11:44:41;9.27;;;5.57;;
31390;SDS011;18022;45.492;11.548;2024-02-26T11:47:20;6.95;;;5.28;;
31390;SDS011;18022;45.492;11.548;2024-02-26T11:49:46;11.73;;;7.88;;
31390;SDS011;18022;45.492;11.548;2024-02-26T11:52:13;12.23;;;5.60;;
31390;SDS011;18022;45.492;11.548;2024-02-26T11:54:47;13.63;;;7.10;;
31390;SDS011;18022;45.492;11.548;2024-02-26T11:59:50;43.58;;;24.35;;
31390;SDS011;18022;45.492;11.548;2024-02-26T12:05:22;26.90;;;16.77;;
31390;SDS011;18022;45.492;11.548;2024-02-26T12:07:53;21.10;;;12.65;;
31390;SDS011;18022;45.492;11.548;2024-02-26T12:12:59;20.52;;;12.52;;
31390;SDS011;18022;45.492;11.548;2024-02-26T12:15:33;13.57;;;7.80;;
31390;SDS011;18022;45.492;11.548;2024-02-26T12:18:01;18.15;;;14.18;;
31390;SDS011;18022;45.492;11.548;2024-02-26T12:20:32;35.58;;;26.95;;
31390;SDS011;18022;45.492;11.548;2024-02-26T12:22:57;22.65;;;16.63;;
31390;SDS011;18022;45.492;11.548;2024-02-26T12:25:24;14.65;;;9.63;;
31390;SDS011;18022;45.492;11.548;2024-02-26T12:27:54;15.00;;;10.40;;
31390;SDS011;18022;45.492;11.548;2024-02-26T12:30:20;21.15;;;7.82;;
31390;SDS011;18022;45.492;11.548;2024-02-26T12:32:49;7.95;;;6.45;;
31390;SDS011;18022;45.492;11.548;2024-02-26T12:37:45;8.07;;;5.18;;
31390;SDS011;18022;45.492;11.548;2024-02-26T12:40:12;6.18;;;4.50;;
31390;SDS011;18022;45.492;11.548;2024-02-26T12:42:38;7.63;;;4.60;;
31390;SDS011;18022;45.492;11.548;2024-02-26T12:45:05;8.90;;;5.93;;
31390;SDS011;18022;45.492;11.548;2024-02-26T12:47:39;6.18;;;4.85;;
31390;SDS011;18022;45.492;11.548;2024-02-26T12:50:06;7.20;;;4.78;;
31390;SDS011;18022;45.492;11.548;2024-02-26T12:52:34;10.43;;;5.07;;
31390;SDS011;18022;45.492;11.548;2024-02-26T12:55:03;7.97;;;4.90;;
31390;SDS011;18022;45.492;11.548;2024-02-26T12:57:31;5.78;;;4.93;;
31390;SDS011;18022;45.492;11.548;2024-02-26T12:59:58;6.75;;;4.70;;
31390;SDS011;18022;45.492;11.548;2024-02-26T13:02:25;10.65;;;4.75;;
31390;SDS011;18022;45.492;11.548;2024-02-26T13:04:52;24.08;;;13.88;;
31390;SDS011;18022;45.492;11.548;2024-02-26T13:07:20;7.65;;;4.80;;
31390;SDS011;18022;45.492;11.548;2024-02-26T13:09:46;5.72;;;4.35;;
31390;SDS011;18022;45.492;11.548;2024-02-26T13:12:11;9.25;;;4.80;;
31390;SDS011;18022;45.492;11.548;2024-02-26T13:14:38;8.87;;;6.03;;
31390;SDS011;18022;45.492;11.548;2024-02-26T13:17:04;7.43;;;4.85;;
31390;SDS011;18022;45.492;11.548;2024-02-26T13:19:30;8.68;;;5.05;;
31390;SDS011;18022;45.492;11.548;2024-02-26T13:21:55;7.75;;;5.00;;
31390;SDS011;18022;45.492;11.548;2024-02-26T13:24:28;6.85;;;4.00;;
31390;SDS011;18022;45.492;11.548;2024-02-26T13:29:21;10.75;;;3.88;;
31390;SDS011;18022;45.492;11.548;2024-02-26T13:31:47;6.22;;;4.20;;
31390;SDS011;18022;45.492;11.548;2024-02-26T13:34:27;7.97;;;4.35;;
31390;SDS011;18022;45.492;11.548;2024-02-26T13:36:54;10.63;;;5.70;;
31390;SDS011;18022;45.492;11.548;2024-02-26T13:39:23;7.50;;;4.15;;
31390;SDS011;18022;45.492;11.548;2024-02-26T13:41:50;11.10;;;4.80;;
31390;SDS011;18022;45.492;11.548;2024-02-26T13:44:16;11.40;;;7.05;;
31390;SDS011;18022;45.492;11.548;2024-02-26T13:46:42;23.00;;;14.95;;
31390;SDS011;18022;45.492;11.548;2024-02-26T13:49:08;15.82;;;10.15;;
31390;SDS011;18022;45.492;11.548;2024-02-26T13:51:34;24.45;;;13.88;;
31390;SDS011;18022;45.492;11.548;2024-02-26T13:54:03;26.58;;;15.65;;
31390;SDS011;18022;45.492;11.548;2024-02-26T13:56:30;15.27;;;9.48;;
31390;SDS011;18022;45.492;11.548;2024-02-26T13:58:56;10.07;;;8.02;;
31390;SDS011;18022;45.492;11.548;2024-02-26T14:01:22;12.45;;;7.70;;
31390;SDS011;18022;45.492;11.548;2024-02-26T14:03:47;14.85;;;8.27;;
31390;SDS011;18022;45.492;11.548;2024-02-26T14:06:13;17.05;;;9.65;;
31390;SDS011;18022;45.492;11.548;2024-02-26T14:08:39;13.73;;;9.45;;
31390;SDS011;18022;45.492;11.548;2024-02-26T14:11:05;12.50;;;9.23;;
31390;SDS011;18022;45.492;11.548;2024-02-26T14:13:31;9.38;;;7.10;;
31390;SDS011;18022;45.492;11.548;2024-02-26T14:15:56;10.73;;;6.32;;
31390;SDS011;18022;45.492;11.548;2024-02-26T14:18:22;9.07;;;6.03;;
31390;SDS011;18022;45.492;11.548;2024-02-26T14:20:48;11.68;;;8.98;;
31390;SDS011;18022;45.492;11.548;2024-02-26T14:23:14;9.63;;;6.55;;
31390;SDS011;18022;45.492;11.548;2024-02-26T14:25:39;6.38;;;5.57;;
31390;SDS011;18022;45.492;11.548;2024-02-26T14:28:05;7.90;;;5.80;;
31390;SDS011;18022;45.492;11.548;2024-02-26T14:30:31;9.45;;;6.53;;
31390;SDS011;18022;45.492;11.548;2024-02-26T14:32:57;9.05;;;4.97;;
31390;SDS011;18022;45.492;11.548;2024-02-26T14:35:23;5.65;;;3.92;;
31390;SDS011;18022;45.492;11.548;2024-02-26T14:37:49;4.40;;;2.40;;
31390;SDS011;18022;45.492;11.548;2024-02-26T14:40:15;6.03;;;2.30;;
31390;SDS011;18022;45.492;11.548;2024-02-26T14:42:41;4.57;;;2.30;;
31390;SDS011;18022;45.492;11.548;2024-02-26T14:45:07;5.18;;;2.42;;
31390;SDS011;18022;45.492;11.548;2024-02-26T14:47:37;4.13;;;2.35;;
31390;SDS011;18022;45.492;11.548;2024-02-26T14:50:03;4.70;;;2.15;;